createdAt,value
2017-09-20T00:00:28.917Z,1016.8
2017-09-20T00:01:30.334Z,1016.8
2017-09-20T00:02:31.756Z,1016.8
2017-09-20T00:03:33.165Z,1016.8
2017-09-20T00:04:34.581Z,1016.8
2017-09-20T00:05:35.999Z,1016.8
2017-09-20T00:06:37.417Z,1016.8
2017-09-20T00:07:38.834Z,1016.8
2017-09-20T00:08:40.250Z,1016.8
2017-09-20T00:09:41.668Z,1016.8
2017-09-20T00:10:43.085Z,1016.8
2017-09-20T00:11:44.501Z,1016.8
2017-09-20T00:12:45.922Z,1016.8
2017-09-20T00:13:47.338Z,1016.8
2017-09-20T00:14:48.756Z,1016.8
2017-09-20T00:15:50.180Z,1016.8
2017-09-20T00:16:51.596Z,1016.8
2017-09-20T00:17:53.014Z,1016.8
2017-09-20T00:18:54.433Z,1016.8
2017-09-20T00:19:55.844Z,1016.8
2017-09-20T00:20:57.262Z,1016.8
2017-09-20T00:21:58.676Z,1016.8
2017-09-20T00:23:00.092Z,1016.8
2017-09-20T00:24:01.514Z,1016.8
2017-09-20T00:25:02.930Z,1016.8
2017-09-20T00:26:04.348Z,1016.8
2017-09-20T00:27:05.761Z,1016.7
2017-09-20T00:28:07.182Z,1016.7
2017-09-20T00:29:08.602Z,1016.7
2017-09-20T00:30:10.019Z,1016.7
2017-09-20T00:31:11.437Z,1016.7
2017-09-20T00:32:12.855Z,1016.7
2017-09-20T00:33:14.272Z,1016.7
2017-09-20T00:34:15.686Z,1016.7
2017-09-20T00:35:17.106Z,1016.7
2017-09-20T00:36:18.518Z,1016.7
2017-09-20T00:37:19.936Z,1016.7
2017-09-20T00:38:21.353Z,1016.7
2017-09-20T00:39:22.770Z,1016.7
2017-09-20T00:40:24.187Z,1016.7
2017-09-20T00:41:25.603Z,1016.7
2017-09-20T00:42:27.019Z,1016.7
2017-09-20T00:43:28.434Z,1016.7
2017-09-20T00:44:29.853Z,1016.6
2017-09-20T00:45:31.265Z,1016.6
2017-09-20T00:46:32.682Z,1016.6
2017-09-20T00:47:34.096Z,1016.6
2017-09-20T00:48:35.519Z,1016.6
2017-09-20T00:49:36.933Z,1016.6
2017-09-20T00:50:38.349Z,1016.6
2017-09-20T00:51:39.763Z,1016.6
2017-09-20T00:52:41.193Z,1016.7
2017-09-20T00:53:42.612Z,1016.6
2017-09-20T00:54:44.027Z,1016.6
2017-09-20T00:55:45.445Z,1016.6
2017-09-20T00:56:46.861Z,1016.7
2017-09-20T00:57:48.278Z,1016.6
2017-09-20T00:58:49.692Z,1016.6
2017-09-20T00:59:51.106Z,1016.7
2017-09-20T01:00:52.526Z,1016.7
2017-09-20T01:01:53.942Z,1016.6
2017-09-20T01:02:55.356Z,1016.7
2017-09-20T01:03:56.774Z,1016.6
2017-09-20T01:04:58.189Z,1016.7
2017-09-20T01:05:59.607Z,1016.6
2017-09-20T01:07:01.021Z,1016.6
2017-09-20T01:08:02.436Z,1016.6
2017-09-20T01:09:03.851Z,1016.6
2017-09-20T01:10:05.266Z,1016.6
2017-09-20T01:11:06.686Z,1016.7
2017-09-20T01:12:08.099Z,1016.7
2017-09-20T01:13:09.529Z,1016.7
2017-09-20T01:14:10.947Z,1016.7
2017-09-20T01:15:12.365Z,1016.7
2017-09-20T01:16:13.782Z,1016.8
2017-09-20T01:17:15.198Z,1016.8
2017-09-20T01:18:16.619Z,1016.8
2017-09-20T01:19:18.035Z,1016.8
2017-09-20T01:20:19.456Z,1016.8
2017-09-20T01:21:20.871Z,1016.8
2017-09-20T01:22:22.287Z,1016.8
2017-09-20T01:23:23.703Z,1016.7
2017-09-20T01:24:25.117Z,1016.7
2017-09-20T01:25:26.536Z,1016.7
2017-09-20T01:26:27.950Z,1016.7
2017-09-20T01:27:29.368Z,1016.7
2017-09-20T01:28:30.783Z,1016.7
2017-09-20T01:29:32.201Z,1016.7
2017-09-20T01:30:33.613Z,1016.7
2017-09-20T01:31:35.031Z,1016.7
2017-09-20T01:32:36.445Z,1016.7
2017-09-20T01:33:37.863Z,1016.7
2017-09-20T01:34:39.280Z,1016.7
2017-09-20T01:35:40.698Z,1016.7
2017-09-20T01:36:42.113Z,1016.7
2017-09-20T01:37:43.532Z,1016.7
2017-09-20T01:38:44.949Z,1016.7
2017-09-20T01:39:46.367Z,1016.6
2017-09-20T01:40:47.786Z,1016.7
2017-09-20T01:41:49.200Z,1016.6
2017-09-20T01:42:50.617Z,1016.6
2017-09-20T01:43:52.032Z,1016.7
2017-09-20T01:44:53.446Z,1016.7
2017-09-20T01:45:54.863Z,1016.6
2017-09-20T01:46:56.279Z,1016.6
2017-09-20T01:47:57.696Z,1016.6
2017-09-20T01:48:59.113Z,1016.7
2017-09-20T01:50:00.529Z,1016.6
2017-09-20T01:51:01.947Z,1016.6
2017-09-20T01:52:03.360Z,1016.7
2017-09-20T01:53:04.778Z,1016.6
2017-09-20T01:54:06.193Z,1016.7
2017-09-20T01:55:07.612Z,1016.6
2017-09-20T01:56:09.025Z,1016.7
2017-09-20T01:57:10.441Z,1016.6
2017-09-20T01:58:11.857Z,1016.6
2017-09-20T01:59:13.273Z,1016.7
2017-09-20T02:00:14.688Z,1016.6
2017-09-20T02:01:16.101Z,1016.7
2017-09-20T02:02:17.518Z,1016.7
2017-09-20T02:03:18.933Z,1016.7
2017-09-20T02:04:20.349Z,1016.7
2017-09-20T02:05:21.770Z,1016.7
2017-09-20T02:06:23.181Z,1016.7
2017-09-20T02:07:24.594Z,1016.7
2017-09-20T02:08:26.011Z,1016.6
2017-09-20T02:09:27.428Z,1016.6
2017-09-20T02:10:28.844Z,1016.6
2017-09-20T02:11:30.260Z,1016.6
2017-09-20T02:12:31.679Z,1016.6
2017-09-20T02:13:33.095Z,1016.6
2017-09-20T02:14:34.512Z,1016.6
2017-09-20T02:15:35.930Z,1016.6
2017-09-20T02:16:37.345Z,1016.7
2017-09-20T02:17:38.762Z,1016.6
2017-09-20T02:18:40.179Z,1016.6
2017-09-20T02:19:41.604Z,1016.6
2017-09-20T02:20:43.018Z,1016.6
2017-09-20T02:21:44.434Z,1016.6
2017-09-20T02:22:45.852Z,1016.6
2017-09-20T02:23:47.265Z,1016.6
2017-09-20T02:24:48.680Z,1016.6
2017-09-20T02:25:50.095Z,1016.6
2017-09-20T02:26:51.512Z,1016.6
2017-09-20T02:27:52.925Z,1016.6
2017-09-20T02:28:54.343Z,1016.6
2017-09-20T02:29:55.757Z,1016.6
2017-09-20T02:30:57.173Z,1016.6
2017-09-20T02:31:58.587Z,1016.6
2017-09-20T02:33:00.003Z,1016.6
2017-09-20T02:34:01.418Z,1016.6
2017-09-20T02:35:02.836Z,1016.6
2017-09-20T02:36:04.249Z,1016.5
2017-09-20T02:37:05.664Z,1016.6
2017-09-20T02:38:07.083Z,1016.5
2017-09-20T02:39:08.495Z,1016.5
2017-09-20T02:40:09.912Z,1016.6
2017-09-20T02:41:11.328Z,1016.6
2017-09-20T02:42:12.744Z,1016.6
2017-09-20T02:43:14.162Z,1016.6
2017-09-20T02:44:15.580Z,1016.5
2017-09-20T02:45:17.003Z,1016.5
2017-09-20T02:46:18.421Z,1016.5
2017-09-20T02:47:19.835Z,1016.6
2017-09-20T02:48:21.253Z,1016.6
2017-09-20T02:49:22.666Z,1016.6
2017-09-20T02:50:24.079Z,1016.6
2017-09-20T02:51:25.497Z,1016.6
2017-09-20T02:52:26.925Z,1016.6
2017-09-20T02:53:28.342Z,1016.6
2017-09-20T02:54:29.757Z,1016.6
2017-09-20T02:55:31.170Z,1016.7
2017-09-20T02:56:32.589Z,1016.7
2017-09-20T02:57:34.004Z,1016.6
2017-09-20T02:58:35.417Z,1016.7
2017-09-20T02:59:36.835Z,1016.7
2017-09-20T03:00:38.250Z,1016.7
2017-09-20T03:01:39.663Z,1016.6
2017-09-20T03:02:41.082Z,1016.7
2017-09-20T03:03:42.501Z,1016.6
2017-09-20T03:04:43.914Z,1016.6
2017-09-20T03:05:45.331Z,1016.6
2017-09-20T03:06:46.748Z,1016.6
2017-09-20T03:07:48.165Z,1016.6
2017-09-20T03:08:49.584Z,1016.6
2017-09-20T03:09:51.001Z,1016.6
2017-09-20T03:10:52.414Z,1016.6
2017-09-20T03:11:53.833Z,1016.6
2017-09-20T03:12:55.279Z,1016.6
2017-09-20T03:13:56.694Z,1016.6
2017-09-20T03:14:58.114Z,1016.6
2017-09-20T03:15:59.530Z,1016.6
2017-09-20T03:17:00.947Z,1016.5
2017-09-20T03:18:02.363Z,1016.6
2017-09-20T03:19:03.792Z,1016.6
2017-09-20T03:20:05.206Z,1016.6
2017-09-20T03:21:06.622Z,1016.5
2017-09-20T03:22:08.033Z,1016.5
2017-09-20T03:23:09.452Z,1016.5
2017-09-20T03:24:10.870Z,1016.5
2017-09-20T03:25:12.285Z,1016.5
2017-09-20T03:26:13.699Z,1016.5
2017-09-20T03:27:15.113Z,1016.5
2017-09-20T03:28:16.538Z,1016.5
2017-09-20T03:29:17.946Z,1016.5
2017-09-20T03:30:19.362Z,1016.5
2017-09-20T03:31:20.790Z,1016.5
2017-09-20T03:32:22.206Z,1016.5
2017-09-20T03:33:23.623Z,1016.5
2017-09-20T03:34:25.062Z,1016.5
2017-09-20T03:35:26.474Z,1016.5
2017-09-20T03:36:27.889Z,1016.5
2017-09-20T03:37:29.341Z,1016.5
2017-09-20T03:38:30.757Z,1016.5
2017-09-20T03:39:32.172Z,1016.5
2017-09-20T03:40:33.586Z,1016.4
2017-09-20T03:41:35.002Z,1016.5
2017-09-20T03:42:36.417Z,1016.4
2017-09-20T03:43:37.832Z,1016.4
2017-09-20T03:44:39.247Z,1016.4
2017-09-20T03:45:40.662Z,1016.4
2017-09-20T03:46:42.082Z,1016.4
2017-09-20T03:47:43.495Z,1016.4
2017-09-20T03:48:44.908Z,1016.4
2017-09-20T03:49:46.323Z,1016.4
2017-09-20T03:50:47.741Z,1016.4
2017-09-20T03:51:49.155Z,1016.5
2017-09-20T03:52:50.570Z,1016.5
2017-09-20T03:53:52.006Z,1016.5
2017-09-20T03:54:53.422Z,1016.4
2017-09-20T03:55:54.839Z,1016.5
2017-09-20T03:56:56.253Z,1016.4
2017-09-20T03:57:57.675Z,1016.4
2017-09-20T03:58:59.093Z,1016.5
2017-09-20T04:00:00.530Z,1016.5
2017-09-20T04:01:01.947Z,1016.5
2017-09-20T04:02:03.363Z,1016.5
2017-09-20T04:03:04.778Z,1016.6
2017-09-20T04:04:06.193Z,1016.5
2017-09-20T04:05:07.607Z,1016.5
2017-09-20T04:06:09.025Z,1016.5
2017-09-20T04:07:10.437Z,1016.6
2017-09-20T04:08:11.854Z,1016.5
2017-09-20T04:09:13.268Z,1016.5
2017-09-20T04:10:14.684Z,1016.5
2017-09-20T04:11:16.104Z,1016.6
2017-09-20T04:12:17.514Z,1016.6
2017-09-20T04:13:18.931Z,1016.6
2017-09-20T04:14:20.371Z,1016.5
2017-09-20T04:15:21.761Z,1016.5
2017-09-20T04:16:23.180Z,1016.5
2017-09-20T04:17:24.593Z,1016.5
2017-09-20T04:18:26.012Z,1016.6
2017-09-20T04:19:27.429Z,1016.6
2017-09-20T04:20:28.847Z,1016.6
2017-09-20T04:21:30.258Z,1016.6
2017-09-20T04:22:31.675Z,1016.6
2017-09-20T04:23:33.089Z,1016.6
2017-09-20T04:24:35.062Z,1016.6
2017-09-20T04:25:36.499Z,1016.6
2017-09-20T04:26:37.918Z,1016.6
2017-09-20T04:27:39.330Z,1016.6
2017-09-20T04:28:40.745Z,1016.7
2017-09-20T04:29:42.160Z,1016.7
2017-09-20T04:30:43.575Z,1016.7
2017-09-20T04:31:44.995Z,1016.7
2017-09-20T04:32:46.411Z,1016.7
2017-09-20T04:33:47.829Z,1016.7
2017-09-20T04:34:49.244Z,1016.7
2017-09-20T04:35:50.658Z,1016.7
2017-09-20T04:36:52.074Z,1016.7
2017-09-20T04:37:53.488Z,1016.7
2017-09-20T04:38:54.903Z,1016.8
2017-09-20T04:39:56.319Z,1016.8
2017-09-20T04:40:57.734Z,1016.8
2017-09-20T04:41:59.150Z,1016.7
2017-09-20T04:43:00.566Z,1016.8
2017-09-20T04:44:01.981Z,1016.7
2017-09-20T04:45:03.397Z,1016.8
2017-09-20T04:46:04.815Z,1016.8
2017-09-20T04:47:06.234Z,1016.8
2017-09-20T04:48:07.650Z,1016.8
2017-09-20T04:49:09.069Z,1016.8
2017-09-20T04:50:10.486Z,1016.8
2017-09-20T04:51:11.902Z,1016.7
2017-09-20T04:52:13.326Z,1016.8
2017-09-20T04:53:14.737Z,1016.8
2017-09-20T04:54:16.151Z,1016.8
2017-09-20T04:55:17.567Z,1016.7
2017-09-20T04:56:18.983Z,1016.7
2017-09-20T04:57:20.399Z,1016.7
2017-09-20T04:58:21.815Z,1016.7
2017-09-20T04:59:23.229Z,1016.7
2017-09-20T05:00:24.644Z,1016.7
2017-09-20T05:01:26.061Z,1016.7
2017-09-20T05:02:27.476Z,1016.7
2017-09-20T05:03:28.893Z,1016.7
2017-09-20T05:04:30.309Z,1016.7
2017-09-20T05:05:31.724Z,1016.7
2017-09-20T05:06:33.140Z,1016.7
2017-09-20T05:07:34.554Z,1016.7
2017-09-20T05:08:35.975Z,1016.8
2017-09-20T05:09:37.391Z,1016.7
2017-09-20T05:10:38.806Z,1016.8
2017-09-20T05:11:40.223Z,1016.8
2017-09-20T05:12:41.637Z,1016.7
2017-09-20T05:13:43.053Z,1016.8
2017-09-20T05:14:44.471Z,1016.8
2017-09-20T05:15:45.884Z,1016.8
2017-09-20T05:16:47.301Z,1016.8
2017-09-20T05:17:48.717Z,1016.9
2017-09-20T05:18:50.134Z,1016.9
2017-09-20T05:19:51.551Z,1016.9
2017-09-20T05:20:52.969Z,1016.9
2017-09-20T05:21:54.384Z,1016.9
2017-09-20T05:22:55.801Z,1016.9
2017-09-20T05:23:57.216Z,1016.9
2017-09-20T05:24:58.634Z,1017.0
2017-09-20T05:26:00.050Z,1016.9
2017-09-20T05:27:01.462Z,1017.0
2017-09-20T05:28:02.879Z,1016.9
2017-09-20T05:29:04.295Z,1017.0
2017-09-20T05:30:05.714Z,1017.0
2017-09-20T05:31:07.144Z,1017.0
2017-09-20T05:32:08.560Z,1017.0
2017-09-20T05:33:09.983Z,1017.0
2017-09-20T05:34:11.397Z,1017.0
2017-09-20T05:35:12.812Z,1017.0
2017-09-20T05:36:14.291Z,1017.0
2017-09-20T05:37:15.708Z,1017.1
2017-09-20T05:38:17.124Z,1017.1
2017-09-20T05:39:18.540Z,1017.1
2017-09-20T05:40:19.957Z,1017.1
2017-09-20T05:41:21.372Z,1017.0
2017-09-20T05:42:22.792Z,1017.0
2017-09-20T05:43:24.203Z,1017.0
2017-09-20T05:44:25.618Z,1017.0
2017-09-20T05:45:27.034Z,1017.0
2017-09-20T05:46:28.454Z,1017.1
2017-09-20T05:47:29.885Z,1017.1
2017-09-20T05:48:31.302Z,1017.1
2017-09-20T05:49:32.723Z,1017.1
2017-09-20T05:50:34.133Z,1017.0
2017-09-20T05:51:35.550Z,1017.0
2017-09-20T05:52:36.966Z,1017.0
2017-09-20T05:53:38.383Z,1017.0
2017-09-20T05:54:39.797Z,1017.0
2017-09-20T05:55:41.212Z,1017.0
2017-09-20T05:56:42.629Z,1017.0
2017-09-20T05:57:44.045Z,1017.0
2017-09-20T05:58:45.456Z,1017.0
2017-09-20T05:59:46.877Z,1017.1
2017-09-20T06:00:48.290Z,1017.1
2017-09-20T06:01:49.704Z,1017.1
2017-09-20T06:02:51.120Z,1017.1
2017-09-20T06:03:52.537Z,1017.1
2017-09-20T06:04:53.953Z,1017.1
2017-09-20T06:05:55.410Z,1017.1
2017-09-20T06:06:56.790Z,1017.1
2017-09-20T06:07:58.225Z,1017.1
2017-09-20T06:08:59.642Z,1017.1
2017-09-20T06:10:01.055Z,1017.1
2017-09-20T06:11:02.470Z,1017.1
2017-09-20T06:12:03.893Z,1017.1
2017-09-20T06:13:05.302Z,1017.1
2017-09-20T06:14:06.718Z,1017.2
2017-09-20T06:15:08.136Z,1017.1
2017-09-20T06:16:09.546Z,1017.1
2017-09-20T06:17:10.986Z,1017.2
2017-09-20T06:18:12.405Z,1017.1
2017-09-20T06:19:13.820Z,1017.2
2017-09-20T06:20:15.240Z,1017.2
2017-09-20T06:21:16.669Z,1017.2
2017-09-20T06:22:18.101Z,1017.2
2017-09-20T06:23:19.518Z,1017.2
2017-09-20T06:24:20.934Z,1017.2
2017-09-20T06:25:22.352Z,1017.2
2017-09-20T06:26:23.767Z,1017.1
2017-09-20T06:27:25.183Z,1017.1
2017-09-20T06:28:26.603Z,1017.1
2017-09-20T06:29:28.019Z,1017.1
2017-09-20T06:30:29.429Z,1017.1
2017-09-20T06:31:30.853Z,1017.1
2017-09-20T06:32:32.275Z,1017.1
2017-09-20T06:33:33.686Z,1017.1
2017-09-20T06:34:35.105Z,1017.1
2017-09-20T06:35:36.519Z,1017.1
2017-09-20T06:36:37.940Z,1017.1
2017-09-20T06:37:39.364Z,1017.1
2017-09-20T06:38:40.778Z,1017.1
2017-09-20T06:39:42.194Z,1017.1
2017-09-20T06:40:43.630Z,1017.1
2017-09-20T06:41:45.049Z,1017.1
2017-09-20T06:42:46.471Z,1017.1
2017-09-20T06:43:47.902Z,1017.1
2017-09-20T06:44:49.320Z,1017.1
2017-09-20T06:45:50.738Z,1017.1
2017-09-20T06:46:52.218Z,1017.1
2017-09-20T06:47:53.636Z,1017.1
2017-09-20T06:48:55.055Z,1017.2
2017-09-20T06:49:56.472Z,1017.2
2017-09-20T06:50:57.889Z,1017.2
2017-09-20T06:51:59.312Z,1017.3
2017-09-20T06:53:00.725Z,1017.2
2017-09-20T06:54:02.142Z,1017.3
2017-09-20T06:55:03.558Z,1017.3
2017-09-20T06:56:04.982Z,1017.3
2017-09-20T06:57:06.394Z,1017.3
2017-09-20T06:58:07.818Z,1017.3
2017-09-20T06:59:09.230Z,1017.3
2017-09-20T07:00:10.664Z,1017.3
2017-09-20T07:01:12.081Z,1017.3
2017-09-20T07:02:13.509Z,1017.3
2017-09-20T07:03:14.921Z,1017.4
2017-09-20T07:04:16.336Z,1017.3
2017-09-20T07:05:17.753Z,1017.4
2017-09-20T07:06:19.170Z,1017.4
2017-09-20T07:07:20.590Z,1017.4
2017-09-20T07:08:22.009Z,1017.4
2017-09-20T07:09:23.437Z,1017.4
2017-09-20T07:10:24.853Z,1017.4
2017-09-20T07:11:26.272Z,1017.4
2017-09-20T07:12:27.686Z,1017.4
2017-09-20T07:13:29.113Z,1017.4
2017-09-20T07:14:30.534Z,1017.4
2017-09-20T07:15:31.955Z,1017.4
2017-09-20T07:16:33.371Z,1017.5
2017-09-20T07:17:34.787Z,1017.5
2017-09-20T07:18:36.207Z,1017.5
2017-09-20T07:19:37.625Z,1017.5
2017-09-20T07:20:39.039Z,1017.5
2017-09-20T07:21:40.459Z,1017.6
2017-09-20T07:22:41.877Z,1017.5
2017-09-20T07:23:43.293Z,1017.5
2017-09-20T07:24:44.712Z,1017.5
2017-09-20T07:25:46.127Z,1017.5
2017-09-20T07:26:47.559Z,1017.5
2017-09-20T07:27:48.992Z,1017.6
2017-09-20T07:28:50.410Z,1017.6
2017-09-20T07:29:51.825Z,1017.5
2017-09-20T07:30:53.242Z,1017.5
2017-09-20T07:31:54.660Z,1017.5
2017-09-20T07:32:56.083Z,1017.5
2017-09-20T07:33:57.501Z,1017.5
2017-09-20T07:34:58.920Z,1017.5
2017-09-20T07:36:00.339Z,1017.4
2017-09-20T07:38:21.715Z,1017.5
2017-09-20T07:39:23.134Z,1017.4
2017-09-20T07:40:24.557Z,1017.4
2017-09-20T07:41:25.970Z,1017.4
2017-09-20T07:42:27.391Z,1017.4
2017-09-20T07:43:28.809Z,1017.3
2017-09-20T07:44:30.232Z,1017.3
2017-09-20T07:45:31.648Z,1017.3
2017-09-20T07:46:33.063Z,1017.2
2017-09-20T07:47:34.479Z,1017.2
2017-09-20T07:48:35.900Z,1017.2
2017-09-20T07:49:37.324Z,1017.2
2017-09-20T07:50:38.759Z,1017.2
2017-09-20T07:51:40.174Z,1017.2
2017-09-20T07:52:41.589Z,1017.2
2017-09-20T07:53:43.004Z,1017.2
2017-09-20T07:54:44.426Z,1017.3
2017-09-20T07:55:45.837Z,1017.3
2017-09-20T07:56:47.253Z,1017.3
2017-09-20T07:57:48.671Z,1017.3
2017-09-20T07:58:50.087Z,1017.4
2017-09-20T07:59:51.506Z,1017.4
2017-09-20T08:00:52.923Z,1017.4
2017-09-20T08:01:54.342Z,1017.4
2017-09-20T08:02:55.761Z,1017.4
2017-09-20T08:03:57.178Z,1017.4
2017-09-20T08:04:58.597Z,1017.4
2017-09-20T08:06:00.014Z,1017.4
2017-09-20T08:07:01.433Z,1017.4
2017-09-20T08:08:02.863Z,1017.4
2017-09-20T08:09:04.281Z,1017.4
2017-09-20T08:10:05.699Z,1017.4
2017-09-20T08:11:07.112Z,1017.4
2017-09-20T08:12:08.528Z,1017.4
2017-09-20T08:13:09.944Z,1017.4
2017-09-20T08:14:11.363Z,1017.4
2017-09-20T08:15:12.778Z,1017.4
2017-09-20T08:16:14.194Z,1017.4
2017-09-20T08:17:15.611Z,1017.4
2017-09-20T08:18:17.028Z,1017.4
2017-09-20T08:19:18.445Z,1017.4
2017-09-20T08:20:19.866Z,1017.4
2017-09-20T08:21:21.284Z,1017.4
2017-09-20T08:22:22.704Z,1017.4
2017-09-20T08:23:24.122Z,1017.4
2017-09-20T08:24:25.539Z,1017.4
2017-09-20T08:25:26.959Z,1017.4
2017-09-20T08:26:28.381Z,1017.4
2017-09-20T08:27:29.801Z,1017.4
2017-09-20T08:28:31.215Z,1017.4
2017-09-20T08:29:32.629Z,1017.4
2017-09-20T08:30:34.066Z,1017.5
2017-09-20T08:31:35.489Z,1017.5
2017-09-20T08:32:36.901Z,1017.5
2017-09-20T08:33:38.321Z,1017.5
2017-09-20T08:34:39.735Z,1017.5
2017-09-20T08:35:41.154Z,1017.5
2017-09-20T08:36:42.571Z,1017.5
2017-09-20T08:37:43.986Z,1017.5
2017-09-20T08:38:45.407Z,1017.5
2017-09-20T08:39:46.824Z,1017.5
2017-09-20T08:40:48.245Z,1017.5
2017-09-20T08:41:49.665Z,1017.5
2017-09-20T08:42:51.081Z,1017.5
2017-09-20T08:43:52.501Z,1017.5
2017-09-20T08:44:53.917Z,1017.5
2017-09-20T08:45:55.333Z,1017.5
2017-09-20T08:46:56.750Z,1017.5
2017-09-20T08:47:58.168Z,1017.6
2017-09-20T08:48:59.593Z,1017.6
2017-09-20T08:50:01.014Z,1017.5
2017-09-20T08:51:02.425Z,1017.5
2017-09-20T08:52:03.841Z,1017.5
2017-09-20T08:53:05.259Z,1017.5
2017-09-20T08:54:06.680Z,1017.6
2017-09-20T08:55:08.100Z,1017.5
2017-09-20T08:56:09.517Z,1017.5
2017-09-20T08:57:10.936Z,1017.5
2017-09-20T08:58:12.357Z,1017.5
2017-09-20T08:59:13.777Z,1017.6
2017-09-20T09:00:15.193Z,1017.6
2017-09-20T09:01:16.616Z,1017.6
2017-09-20T09:02:18.034Z,1017.6
2017-09-20T09:03:19.450Z,1017.6
2017-09-20T09:04:20.873Z,1017.6
2017-09-20T09:05:22.292Z,1017.6
2017-09-20T09:06:23.709Z,1017.6
2017-09-20T09:07:25.128Z,1017.6
2017-09-20T09:08:26.547Z,1017.6
2017-09-20T09:09:27.966Z,1017.6
2017-09-20T09:10:29.384Z,1017.6
2017-09-20T09:11:30.800Z,1017.6
2017-09-20T09:12:32.219Z,1017.6
2017-09-20T09:13:33.639Z,1017.6
2017-09-20T09:14:35.062Z,1017.6
2017-09-20T09:15:36.483Z,1017.6
2017-09-20T09:16:37.901Z,1017.7
2017-09-20T09:17:39.321Z,1017.6
2017-09-20T09:18:40.738Z,1017.6
2017-09-20T09:19:42.156Z,1017.6
2017-09-20T09:20:43.574Z,1017.6
2017-09-20T09:21:44.993Z,1017.6
2017-09-20T09:22:46.411Z,1017.6
2017-09-20T09:23:47.827Z,1017.5
2017-09-20T09:24:49.250Z,1017.6
2017-09-20T09:25:50.668Z,1017.6
2017-09-20T09:26:52.088Z,1017.6
2017-09-20T09:27:53.516Z,1017.6
2017-09-20T09:28:54.936Z,1017.6
2017-09-20T09:29:56.357Z,1017.6
2017-09-20T09:30:57.779Z,1017.6
2017-09-20T09:31:59.205Z,1017.6
2017-09-20T09:33:00.612Z,1017.6
2017-09-20T09:34:02.039Z,1017.6
2017-09-20T09:35:03.449Z,1017.6
2017-09-20T09:36:04.876Z,1017.6
2017-09-20T09:37:06.296Z,1017.6
2017-09-20T09:38:07.715Z,1017.6
2017-09-20T09:39:09.134Z,1017.6
2017-09-20T09:40:10.554Z,1017.6
2017-09-20T09:41:11.971Z,1017.6
2017-09-20T09:42:13.400Z,1017.6
2017-09-20T09:43:14.840Z,1017.6
2017-09-20T09:44:16.260Z,1017.6
2017-09-20T09:45:17.676Z,1017.6
2017-09-20T09:46:19.094Z,1017.6
2017-09-20T09:47:20.516Z,1017.6
2017-09-20T09:48:21.934Z,1017.5
2017-09-20T09:49:23.353Z,1017.5
2017-09-20T09:50:24.772Z,1017.5
2017-09-20T09:51:26.192Z,1017.5
2017-09-20T09:52:27.607Z,1017.5
2017-09-20T09:53:29.030Z,1017.5
2017-09-20T09:54:30.448Z,1017.5
2017-09-20T09:55:31.867Z,1017.5
2017-09-20T09:56:33.286Z,1017.6
2017-09-20T09:57:34.703Z,1017.5
2017-09-20T09:58:36.119Z,1017.5
2017-09-20T09:59:37.541Z,1017.5
2017-09-20T10:00:38.961Z,1017.6
2017-09-20T10:01:40.387Z,1017.6
2017-09-20T10:02:41.804Z,1017.6
2017-09-20T10:03:43.222Z,1017.6
2017-09-20T10:04:44.642Z,1017.6
2017-09-20T10:05:46.063Z,1017.6
2017-09-20T10:06:47.484Z,1017.6
2017-09-20T10:07:48.904Z,1017.6
2017-09-20T10:08:50.323Z,1017.6
2017-09-20T10:09:51.744Z,1017.6
2017-09-20T10:10:53.166Z,1017.5
2017-09-20T10:11:54.584Z,1017.6
2017-09-20T10:12:56.008Z,1017.6
2017-09-20T10:13:57.419Z,1017.6
2017-09-20T10:14:58.838Z,1017.6
2017-09-20T10:16:00.266Z,1017.6
2017-09-20T10:17:01.683Z,1017.6
2017-09-20T10:18:03.107Z,1017.6
2017-09-20T10:19:04.527Z,1017.6
2017-09-20T10:20:05.950Z,1017.6
2017-09-20T10:21:07.376Z,1017.6
2017-09-20T10:22:08.796Z,1017.6
2017-09-20T10:23:10.215Z,1017.6
2017-09-20T10:24:11.633Z,1017.6
2017-09-20T10:25:13.050Z,1017.6
2017-09-20T10:26:14.469Z,1017.6
2017-09-20T10:27:15.894Z,1017.6
2017-09-20T10:28:17.309Z,1017.5
2017-09-20T10:29:18.726Z,1017.5
2017-09-20T10:30:20.144Z,1017.5
2017-09-20T10:31:21.563Z,1017.5
2017-09-20T10:32:22.982Z,1017.4
2017-09-20T10:33:24.402Z,1017.4
2017-09-20T10:34:25.818Z,1017.4
2017-09-20T10:35:27.238Z,1017.4
2017-09-20T10:36:28.663Z,1017.4
2017-09-20T10:37:30.073Z,1017.4
2017-09-20T10:38:31.491Z,1017.4
2017-09-20T10:39:32.913Z,1017.4
2017-09-20T10:40:34.333Z,1017.4
2017-09-20T10:41:35.752Z,1017.3
2017-09-20T10:42:37.172Z,1017.3
2017-09-20T10:43:38.591Z,1017.3
2017-09-20T10:44:40.009Z,1017.3
2017-09-20T10:45:41.430Z,1017.2
2017-09-20T10:46:42.847Z,1017.2
2017-09-20T10:47:44.265Z,1017.2
2017-09-20T10:48:45.685Z,1017.2
2017-09-20T10:49:47.104Z,1017.2
2017-09-20T10:50:48.523Z,1017.2
2017-09-20T10:51:49.945Z,1017.1
2017-09-20T10:52:51.366Z,1017.2
2017-09-20T10:53:52.780Z,1017.1
2017-09-20T10:54:54.204Z,1017.1
2017-09-20T10:55:55.625Z,1017.2
2017-09-20T10:56:57.044Z,1017.1
2017-09-20T10:57:58.465Z,1017.1
2017-09-20T10:58:59.882Z,1017.2
2017-09-20T11:00:01.322Z,1017.2
2017-09-20T11:01:02.742Z,1017.2
2017-09-20T11:02:04.164Z,1017.2
2017-09-20T11:03:05.582Z,1017.2
2017-09-20T11:04:07.003Z,1017.2
2017-09-20T11:05:08.427Z,1017.2
2017-09-20T11:06:09.850Z,1017.1
2017-09-20T11:07:11.270Z,1017.2
2017-09-20T11:08:12.689Z,1017.1
2017-09-20T11:09:14.108Z,1017.1
2017-09-20T11:10:15.534Z,1017.1
2017-09-20T11:11:16.952Z,1017.1
2017-09-20T11:12:18.369Z,1017.1
2017-09-20T11:13:19.788Z,1017.1
2017-09-20T11:14:21.207Z,1017.1
2017-09-20T11:15:22.629Z,1017.1
2017-09-20T11:16:24.051Z,1017.1
2017-09-20T11:17:25.471Z,1017.1
2017-09-20T11:18:26.890Z,1017.1
2017-09-20T11:19:28.312Z,1017.1
2017-09-20T11:20:29.730Z,1017.1
2017-09-20T11:21:31.147Z,1017.1
2017-09-20T11:22:32.569Z,1017.2
2017-09-20T11:23:34.002Z,1017.1
2017-09-20T11:24:35.422Z,1017.1
2017-09-20T11:25:36.856Z,1017.1
2017-09-20T11:26:38.276Z,1017.1
2017-09-20T11:27:39.694Z,1017.1
2017-09-20T11:28:41.117Z,1017.1
2017-09-20T11:29:42.537Z,1017.0
2017-09-20T11:30:43.958Z,1017.1
2017-09-20T11:31:45.386Z,1017.0
2017-09-20T11:32:46.805Z,1017.0
2017-09-20T11:33:48.226Z,1017.0
2017-09-20T11:34:49.648Z,1017.0
2017-09-20T11:35:51.069Z,1017.0
2017-09-20T11:36:52.492Z,1017.0
2017-09-20T11:37:53.910Z,1017.0
2017-09-20T11:38:55.331Z,1017.1
2017-09-20T11:39:56.767Z,1017.1
2017-09-20T11:40:58.186Z,1017.1
2017-09-20T11:41:59.640Z,1017.1
2017-09-20T11:43:01.059Z,1017.0
2017-09-20T11:44:02.477Z,1017.0
2017-09-20T11:45:03.900Z,1017.0
2017-09-20T11:46:05.333Z,1017.1
2017-09-20T11:47:06.754Z,1017.0
2017-09-20T11:48:08.176Z,1017.0
2017-09-20T11:49:09.599Z,1017.0
2017-09-20T11:50:11.017Z,1017.0
2017-09-20T11:51:12.440Z,1017.0
2017-09-20T11:52:13.862Z,1016.9
2017-09-20T11:53:15.278Z,1017.0
2017-09-20T11:54:16.702Z,1016.9
2017-09-20T11:55:18.121Z,1016.9
2017-09-20T11:56:19.541Z,1016.9
2017-09-20T11:57:20.963Z,1016.9
2017-09-20T11:58:22.387Z,1016.9
2017-09-20T11:59:23.808Z,1016.9
2017-09-20T12:00:25.267Z,1016.9
2017-09-20T12:01:26.648Z,1016.9
2017-09-20T12:02:28.072Z,1016.8
2017-09-20T12:03:29.502Z,1016.8
2017-09-20T12:04:30.925Z,1016.8
2017-09-20T12:05:32.349Z,1016.8
2017-09-20T12:06:33.768Z,1016.8
2017-09-20T12:07:35.190Z,1016.8
2017-09-20T12:08:36.610Z,1016.8
2017-09-20T12:09:38.030Z,1016.8
2017-09-20T12:10:39.451Z,1016.8
2017-09-20T12:11:40.882Z,1016.8
2017-09-20T12:12:42.307Z,1016.8
2017-09-20T12:13:43.731Z,1016.8
2017-09-20T12:14:45.148Z,1016.8
2017-09-20T12:15:46.568Z,1016.8
2017-09-20T12:16:47.986Z,1016.8
2017-09-20T12:17:49.410Z,1016.8
2017-09-20T12:18:50.836Z,1016.8
2017-09-20T12:19:52.258Z,1016.7
2017-09-20T12:20:53.681Z,1016.7
2017-09-20T12:21:55.100Z,1016.7
2017-09-20T12:22:56.519Z,1016.7
2017-09-20T12:23:57.948Z,1016.7
2017-09-20T12:24:59.369Z,1016.7
2017-09-20T12:26:00.787Z,1016.7
2017-09-20T12:27:02.213Z,1016.7
2017-09-20T12:28:03.637Z,1016.7
2017-09-20T12:29:05.059Z,1016.7
2017-09-20T12:30:06.485Z,1016.7
2017-09-20T12:31:07.906Z,1016.7
2017-09-20T12:32:09.327Z,1016.7
2017-09-20T12:33:10.747Z,1016.7
2017-09-20T12:34:12.170Z,1016.6
2017-09-20T12:35:13.594Z,1016.6
2017-09-20T12:36:15.040Z,1016.6
2017-09-20T12:37:16.471Z,1016.6
2017-09-20T12:38:17.892Z,1016.6
2017-09-20T12:39:19.317Z,1016.6
2017-09-20T12:40:20.739Z,1016.6
2017-09-20T12:41:22.158Z,1016.6
2017-09-20T12:42:23.579Z,1016.5
2017-09-20T12:43:25.005Z,1016.5
2017-09-20T12:44:26.428Z,1016.5
2017-09-20T12:45:27.847Z,1016.5
2017-09-20T12:46:29.269Z,1016.5
2017-09-20T12:47:30.688Z,1016.5